Huvudsida
METAR-TAF:

METAR-TAF

Flygplatser :

Kilimanjaros internationella flygplats

Kilimanjaro, Tanzania

latitud: 03-25S, longitud: 037-04E, höjd: 891 m

Aktuellt väderrapport

Denna rapport gjordes för 3 timmar och 1 minuter sedan, klockan 12:00 UTC
Vind 12 kt från ost
Temperatur 27°C
Fuktighet 45%
Tryck 1017 hPa
Sikt 10 km eller mer
Få moln på en höjd av 3000 ft

METAR: HTKJ 161200Z 08012KT 9999 FEW030 27/14 Q1017 NOSIG

Tid: 18:01 (15:01 UTC)

Väderprognos

Denna rapport gjordes för 10 timmar och 1 minuter sedan, klockan 05:00 UTC
Prognos gäller från 16 kl. 06 UTC till 17 kl. 06 UTC
Vind 5 kt från ost
Sikt 10 km eller mer
Spridda moln på en höjd av 2800 ft

TAF: HTKJ 160500Z 1606/1706 09005KT 9999 SCT028

Aktuella väderrapporter och prognoser från 4000 flygplatser (METAR- och TAF-rapporter).

De tillgängliga stationerna syns som gula och röda prickar på kartan.

För musen över prickarna för att se namnen på stationerna.

Klicka sedan för att få väderrapporter och prognoser.

För att ändra kartan: Klicka på de gröna knapparna med ett svart kors på för att zooma in; den gröna knappen med ett streck på för att zooma ut; eller på de gröna pilarna för angränsande kartor.


METAR-TAF: